createdAt,value
2017-08-31T00:01:29.249Z,15.40
2017-08-31T00:06:15.874Z,13.77
2017-08-31T00:11:02.766Z,17.43
2017-08-31T00:15:49.421Z,17.90
2017-08-31T00:20:36.092Z,18.00
2017-08-31T00:25:22.844Z,17.90
2017-08-31T00:30:09.534Z,18.57
2017-08-31T00:34:56.176Z,18.17
2017-08-31T00:39:43.072Z,17.50
2017-08-31T00:44:29.676Z,20.20
2017-08-31T00:49:16.290Z,22.40
2017-08-31T00:54:02.902Z,21.13
2017-08-31T00:58:49.528Z,19.80
2017-08-31T01:03:36.528Z,20.80
2017-08-31T01:08:23.133Z,19.47
2017-08-31T01:13:09.891Z,21.53
2017-08-31T01:17:56.975Z,26.30
2017-08-31T01:22:43.577Z,24.83
2017-08-31T01:27:30.548Z,22.30
2017-08-31T01:32:17.212Z,24.37
2017-08-31T01:37:04.191Z,22.47
2017-08-31T01:41:50.844Z,25.23
2017-08-31T01:46:37.858Z,25.87
2017-08-31T01:51:24.492Z,25.33
2017-08-31T01:56:11.121Z,24.33
2017-08-31T02:00:57.922Z,25.20
2017-08-31T02:05:44.794Z,26.93
2017-08-31T02:10:31.872Z,24.47
2017-08-31T02:15:18.636Z,23.13
2017-08-31T02:20:05.409Z,25.03
2017-08-31T02:24:52.248Z,21.47
2017-08-31T02:29:38.977Z,20.20
2017-08-31T02:34:26.017Z,21.10
2017-08-31T02:39:13.095Z,21.43
2017-08-31T02:43:59.712Z,20.80
2017-08-31T02:48:46.353Z,21.43
2017-08-31T02:53:32.964Z,19.70
2017-08-31T02:58:19.567Z,19.30
2017-08-31T03:03:06.669Z,18.50
2017-08-31T03:07:53.268Z,19.80
2017-08-31T03:12:39.968Z,20.63
2017-08-31T03:17:33.662Z,19.43
2017-08-31T03:22:20.479Z,18.37
2017-08-31T03:27:07.546Z,21.37
2017-08-31T03:31:54.562Z,20.00
2017-08-31T03:36:41.177Z,18.63
2017-08-31T03:41:27.817Z,18.20
2017-08-31T03:46:14.445Z,20.20
2017-08-31T03:51:01.264Z,18.73
2017-08-31T03:55:48.965Z,20.87
2017-08-31T04:00:35.575Z,19.77
2017-08-31T04:05:22.181Z,19.70
2017-08-31T04:10:08.849Z,19.17
2017-08-31T04:14:55.532Z,21.03
2017-08-31T04:19:42.682Z,20.30
2017-08-31T04:24:29.356Z,18.60
2017-08-31T04:29:16.000Z,20.70
2017-08-31T04:34:02.981Z,20.90
2017-08-31T04:38:49.613Z,20.50
2017-08-31T04:43:37.438Z,23.47
2017-08-31T04:48:24.044Z,21.27
2017-08-31T04:53:10.965Z,22.17
2017-08-31T04:57:57.579Z,23.30
2017-08-31T05:02:44.181Z,22.27
2017-08-31T05:07:30.928Z,22.30
2017-08-31T05:12:18.009Z,24.03
2017-08-31T05:17:04.693Z,24.47
2017-08-31T05:21:51.496Z,23.40
2017-08-31T05:26:38.194Z,23.13
2017-08-31T05:31:24.951Z,24.27
2017-08-31T05:36:11.627Z,24.63
2017-08-31T05:40:58.412Z,24.60
2017-08-31T05:45:45.296Z,23.03
2017-08-31T05:50:31.883Z,23.77
2017-08-31T05:55:18.557Z,19.40
2017-08-31T06:00:05.190Z,19.00
2017-08-31T06:04:52.115Z,19.73
2017-08-31T06:09:38.745Z,18.93
2017-08-31T06:14:25.384Z,18.50
2017-08-31T06:19:12.035Z,20.60
2017-08-31T06:23:58.640Z,18.30
2017-08-31T06:28:45.261Z,16.97
2017-08-31T06:33:32.612Z,18.80
2017-08-31T06:38:19.253Z,18.63
2017-08-31T06:43:05.941Z,18.23
2017-08-31T06:47:52.592Z,18.30
2017-08-31T06:52:39.648Z,17.20
2017-08-31T06:57:26.362Z,13.97
2017-08-31T07:02:13.054Z,15.50
2017-08-31T07:06:59.753Z,15.03
2017-08-31T07:11:46.359Z,13.67
2017-08-31T07:16:33.190Z,13.90
2017-08-31T07:21:19.839Z,15.70
2017-08-31T07:26:06.474Z,15.70
2017-08-31T07:30:53.218Z,12.30
2017-08-31T07:35:40.168Z,12.30
2017-08-31T07:40:27.272Z,10.37
2017-08-31T07:45:13.896Z,10.37
2017-08-31T07:50:00.493Z,11.07
2017-08-31T07:54:47.115Z,12.40
2017-08-31T07:59:33.766Z,13.00
2017-08-31T08:04:20.379Z,11.73
2017-08-31T08:09:07.296Z,12.10
2017-08-31T08:13:54.019Z,11.60
2017-08-31T08:18:40.737Z,12.50
2017-08-31T08:23:27.358Z,11.30
2017-08-31T08:28:14.037Z,9.50
2017-08-31T08:33:00.703Z,8.37
2017-08-31T08:37:47.425Z,7.60
2017-08-31T08:42:34.260Z,7.17
2017-08-31T08:47:20.878Z,9.70
2017-08-31T08:52:07.810Z,9.03
2017-08-31T08:56:55.248Z,8.67
2017-08-31T09:01:41.847Z,8.63
2017-08-31T09:06:28.469Z,8.23
2017-08-31T09:11:15.088Z,8.10
2017-08-31T09:16:02.001Z,7.47
2017-08-31T09:20:48.653Z,7.30
2017-08-31T09:25:35.274Z,7.60
2017-08-31T09:30:22.199Z,6.90
2017-08-31T09:35:08.961Z,7.53
2017-08-31T09:39:55.633Z,6.60
2017-08-31T09:44:42.269Z,7.10
2017-08-31T09:49:29.186Z,8.00
2017-08-31T09:54:15.792Z,7.40
2017-08-31T09:59:02.434Z,7.03
2017-08-31T10:03:49.044Z,7.60
2017-08-31T10:08:35.770Z,7.27
2017-08-31T10:13:22.413Z,7.27
2017-08-31T10:18:09.389Z,8.27
2017-08-31T10:22:56.001Z,9.80
2017-08-31T10:27:42.609Z,11.87
2017-08-31T10:32:29.380Z,11.17
2017-08-31T10:37:16.020Z,9.13
2017-08-31T10:42:02.646Z,9.33
2017-08-31T10:46:49.862Z,8.57
2017-08-31T10:51:36.482Z,10.10
2017-08-31T10:56:23.088Z,7.97
2017-08-31T11:01:10.695Z,8.87
2017-08-31T11:05:57.398Z,8.17
2017-08-31T11:10:44.894Z,7.43
2017-08-31T11:15:31.941Z,7.70
2017-08-31T11:20:18.532Z,6.20
2017-08-31T11:25:05.245Z,6.90
2017-08-31T11:29:52.225Z,7.53
2017-08-31T11:34:38.813Z,6.87
2017-08-31T11:39:25.421Z,6.50
2017-08-31T11:44:12.460Z,6.70
2017-08-31T11:48:59.184Z,7.33
2017-08-31T11:53:46.068Z,6.80
2017-08-31T11:58:32.704Z,6.90
2017-08-31T12:03:19.657Z,8.27
2017-08-31T12:08:06.285Z,8.67
2017-08-31T12:12:52.911Z,9.80
2017-08-31T12:17:39.943Z,8.67
2017-08-31T12:22:26.581Z,6.47
2017-08-31T12:27:13.205Z,6.40
2017-08-31T12:31:59.831Z,6.50
2017-08-31T12:36:46.495Z,6.83
2017-08-31T12:41:33.110Z,5.60
2017-08-31T12:46:19.726Z,5.37
2017-08-31T12:51:06.411Z,4.27
2017-08-31T12:55:53.020Z,4.40
2017-08-31T13:00:39.633Z,5.07
2017-08-31T13:05:26.558Z,4.63
2017-08-31T13:10:13.173Z,5.13
2017-08-31T13:14:59.791Z,5.60
2017-08-31T13:19:46.425Z,5.10
2017-08-31T13:24:33.053Z,5.37
2017-08-31T13:29:20.010Z,6.03
2017-08-31T13:34:06.618Z,3.80
2017-08-31T13:38:53.271Z,3.00
2017-08-31T13:43:39.906Z,3.67
2017-08-31T13:48:26.627Z,3.07
2017-08-31T13:53:13.269Z,2.50
2017-08-31T13:58:00.387Z,2.90
2017-08-31T14:02:47.188Z,2.43
2017-08-31T14:07:33.858Z,4.30
2017-08-31T14:12:20.661Z,3.30
2017-08-31T14:17:07.696Z,2.53
2017-08-31T14:21:54.345Z,2.90
2017-08-31T14:26:40.986Z,3.00
2017-08-31T14:31:27.605Z,3.20
2017-08-31T14:36:14.234Z,2.80
2017-08-31T14:41:00.845Z,3.10
2017-08-31T14:45:47.471Z,2.53
2017-08-31T14:50:34.079Z,2.83
2017-08-31T14:55:21.788Z,2.73
2017-08-31T15:00:08.426Z,2.60
2017-08-31T15:04:55.220Z,2.83
2017-08-31T15:09:42.244Z,3.53
2017-08-31T15:14:28.965Z,3.83
2017-08-31T15:19:15.596Z,3.80
2017-08-31T15:24:02.240Z,3.53
2017-08-31T15:28:48.843Z,4.00
2017-08-31T15:33:35.493Z,3.00
2017-08-31T15:38:22.569Z,3.63
2017-08-31T15:43:09.162Z,4.63
2017-08-31T15:47:55.772Z,4.50
2017-08-31T15:52:42.394Z,4.73
2017-08-31T15:57:29.372Z,5.10
2017-08-31T16:02:16.310Z,5.27
2017-08-31T16:07:02.951Z,3.90
2017-08-31T16:11:50.336Z,3.50
2017-08-31T16:16:36.998Z,3.30
2017-08-31T16:21:23.660Z,3.10
2017-08-31T16:26:10.646Z,2.93
2017-08-31T16:30:57.333Z,3.80
2017-08-31T16:35:43.978Z,4.03
2017-08-31T16:40:30.657Z,3.70
2017-08-31T16:45:17.397Z,2.60
2017-08-31T16:50:04.331Z,2.40
2017-08-31T16:54:51.046Z,3.13
2017-08-31T16:59:37.685Z,3.30
2017-08-31T17:04:24.388Z,2.50
2017-08-31T17:09:11.067Z,2.90
2017-08-31T17:13:57.731Z,2.77
2017-08-31T17:18:44.820Z,4.10
2017-08-31T17:23:31.619Z,3.67
2017-08-31T17:28:18.370Z,3.20
2017-08-31T17:33:05.106Z,3.90
2017-08-31T17:37:51.863Z,3.40
2017-08-31T17:42:38.550Z,4.53
2017-08-31T17:47:25.660Z,4.57
2017-08-31T17:52:12.448Z,3.87
2017-08-31T17:56:59.136Z,4.70
2017-08-31T18:01:45.844Z,4.60
2017-08-31T18:06:32.511Z,6.00
2017-08-31T18:11:19.660Z,5.33
2017-08-31T18:16:07.155Z,6.17
2017-08-31T18:20:53.957Z,4.90
2017-08-31T18:25:40.841Z,6.03
2017-08-31T18:30:27.644Z,6.33
2017-08-31T18:35:14.396Z,6.57
2017-08-31T18:40:01.143Z,7.97
2017-08-31T18:44:48.280Z,8.10
2017-08-31T18:49:35.044Z,9.30
2017-08-31T18:54:21.792Z,11.30
2017-08-31T18:59:08.551Z,9.63
2017-08-31T19:03:55.331Z,11.07
2017-08-31T19:08:42.056Z,10.20
2017-08-31T19:13:29.106Z,9.30
2017-08-31T19:18:15.871Z,10.47
2017-08-31T19:23:02.715Z,11.03
2017-08-31T19:27:50.010Z,10.57
2017-08-31T19:32:36.776Z,11.57
2017-08-31T19:37:23.676Z,11.20
2017-08-31T19:42:10.831Z,12.20
2017-08-31T19:46:57.554Z,13.33
2017-08-31T19:51:44.334Z,12.03
2017-08-31T19:56:31.079Z,13.43
2017-08-31T20:01:17.933Z,13.90
2017-08-31T20:06:04.751Z,14.43
2017-08-31T20:10:52.037Z,14.70
2017-08-31T20:15:38.743Z,13.40
2017-08-31T20:20:26.218Z,14.10
2017-08-31T20:25:13.026Z,12.87
2017-08-31T20:30:00.001Z,14.90
2017-08-31T20:34:46.651Z,13.40
2017-08-31T20:39:33.678Z,12.40
2017-08-31T20:44:20.388Z,11.97
2017-08-31T20:49:07.108Z,11.67
2017-08-31T20:53:53.720Z,11.93
2017-08-31T20:58:40.345Z,10.00
2017-08-31T21:03:26.993Z,11.40
2017-08-31T21:08:13.641Z,10.50
2017-08-31T21:13:00.271Z,12.47
2017-08-31T21:17:46.888Z,12.43
2017-08-31T21:22:33.520Z,12.60
2017-08-31T21:27:20.128Z,12.87
2017-08-31T21:32:06.878Z,12.50
2017-08-31T21:36:53.506Z,14.20
2017-08-31T21:41:40.093Z,15.90
2017-08-31T21:46:27.146Z,13.37
2017-08-31T21:51:13.746Z,17.77
2017-08-31T21:56:00.388Z,17.20
2017-08-31T22:00:47.005Z,19.13
2017-08-31T22:05:33.936Z,19.87
2017-08-31T22:10:20.532Z,18.97
2017-08-31T22:15:07.160Z,21.53
2017-08-31T22:19:53.784Z,21.50
2017-08-31T22:24:40.537Z,24.37
2017-08-31T22:29:27.130Z,25.87
2017-08-31T22:34:13.744Z,20.93
2017-08-31T22:39:00.350Z,16.20
2017-08-31T22:43:46.985Z,13.23
2017-08-31T22:48:33.615Z,17.10
2017-08-31T22:53:20.242Z,15.63
2017-08-31T22:58:15.148Z,14.77
2017-08-31T23:03:02.051Z,15.43
2017-08-31T23:07:48.683Z,16.30
2017-08-31T23:12:35.361Z,16.47
2017-08-31T23:17:22.238Z,19.23
2017-08-31T23:22:08.959Z,19.67
2017-08-31T23:26:55.603Z,19.70
2017-08-31T23:31:42.324Z,23.90
2017-08-31T23:36:28.921Z,22.23
2017-08-31T23:41:15.865Z,22.77
2017-08-31T23:46:02.502Z,21.73
2017-08-31T23:50:49.117Z,19.60
2017-08-31T23:55:35.727Z,19.87
